Mount Pocono, Pennsylvania
Current Conditions -  °F | °C
As of 1:53 AM on Saturday 25 Oct 2014 (Local Time) from KMPO Reporting Station
Clear Clear  
Wind Chill: 39°   Ceiling: Unl
Heat Index: 45°   Visibility: 10mi
Dew Point: 30°   Wind: 12mph
Humidity: 56%   Direction: 320°NW
Pressure: 29.88"   Gusts: NA
Location:  41.12°N, 75.36°W
Report Text: KMPO 250553Z AUTO 32010KT 10SM CLR 07/M01 A2988 RMK AO2 SLP120 T00721011 10117 20072 53000
Loading
Personal Weather Stations






























Interactive Weather Map
Tropical Storm Tracking
New forecast layout! Learn more

10-Day Weather Forecast

Advertisements
Track Severe Weather on mobile